createdAt,value
2022-10-21T00:01:05.850Z,6.82
2022-10-21T00:03:36.054Z,9.15
2022-10-21T00:06:04.607Z,7.63
2022-10-21T00:08:33.083Z,6.20
2022-10-21T00:11:03.624Z,6.38
2022-10-21T00:13:33.720Z,5.28
2022-10-21T00:16:03.872Z,5.18
2022-10-21T00:18:34.444Z,5.97
2022-10-21T00:21:07.327Z,6.10
2022-10-21T00:23:35.854Z,6.75
2022-10-21T00:26:04.636Z,6.53
2022-10-21T00:28:33.010Z,5.95
2022-10-21T00:31:01.535Z,5.65
2022-10-21T00:33:30.523Z,6.55
2022-10-21T00:36:02.957Z,6.13
2022-10-21T00:38:33.133Z,6.90
2022-10-21T00:41:01.858Z,6.57
2022-10-21T00:43:30.745Z,6.72
2022-10-21T00:46:03.263Z,6.85
2022-10-21T00:48:35.841Z,7.20
2022-10-21T00:51:07.326Z,6.43
2022-10-21T00:53:39.740Z,5.75
2022-10-21T00:56:15.521Z,6.68
2022-10-21T00:58:47.784Z,6.18
2022-10-21T01:01:19.232Z,5.85
2022-10-21T01:03:50.517Z,5.03
2022-10-21T01:06:21.769Z,4.20
2022-10-21T01:08:53.218Z,3.13
2022-10-21T01:11:23.671Z,2.78
2022-10-21T01:14:05.730Z,2.00
2022-10-21T01:16:44.406Z,2.30
2022-10-21T01:19:50.281Z,2.30
2022-10-21T01:22:27.040Z,3.58
2022-10-21T01:25:29.254Z,3.20
2022-10-21T01:28:08.518Z,3.47
2022-10-21T01:30:44.252Z,3.10
2022-10-21T01:33:40.443Z,3.53
2022-10-21T01:36:23.108Z,4.15
2022-10-21T01:39:02.625Z,3.75
2022-10-21T01:41:39.219Z,4.05
2022-10-21T01:44:14.308Z,3.88
2022-10-21T01:46:47.305Z,3.75
2022-10-21T01:49:20.216Z,4.78
2022-10-21T01:51:49.208Z,6.45
2022-10-21T01:54:23.556Z,6.22
2022-10-21T01:56:54.004Z,7.15
2022-10-21T01:59:24.975Z,8.38
2022-10-21T02:01:56.393Z,9.60
2022-10-21T02:04:25.341Z,7.65
2022-10-21T02:06:53.788Z,8.63
2022-10-21T02:09:22.065Z,6.57
2022-10-21T02:11:53.941Z,6.30
2022-10-21T02:14:26.903Z,6.28
2022-10-21T02:16:57.168Z,6.30
2022-10-21T02:19:25.469Z,5.90
2022-10-21T02:21:55.916Z,5.82
2022-10-21T02:24:30.137Z,5.18
2022-10-21T02:26:58.441Z,5.97
2022-10-21T02:29:29.653Z,5.32
2022-10-21T02:32:13.650Z,5.50
2022-10-21T02:34:52.696Z,5.80
2022-10-21T02:37:28.536Z,6.05
2022-10-21T02:40:01.357Z,6.30
2022-10-21T02:42:34.000Z,5.53
2022-10-21T02:45:03.399Z,6.20
2022-10-21T02:47:33.066Z,5.90
2022-10-21T02:50:01.279Z,6.30
2022-10-21T02:52:29.487Z,5.82
2022-10-21T02:54:57.735Z,5.85
2022-10-21T02:57:26.926Z,5.45
2022-10-21T02:59:56.112Z,5.45
2022-10-21T03:02:24.333Z,5.22
2022-10-21T03:04:53.927Z,5.72
2022-10-21T03:07:22.553Z,5.90
2022-10-21T03:09:50.825Z,5.88
2022-10-21T03:12:18.997Z,5.93
2022-10-21T03:14:47.205Z,5.50
2022-10-21T03:17:15.352Z,6.68
2022-10-21T03:19:43.594Z,5.80
2022-10-21T03:22:13.152Z,7.18
2022-10-21T03:24:41.359Z,7.03
2022-10-21T03:27:09.694Z,7.07
2022-10-21T03:29:37.893Z,7.10
2022-10-21T03:32:07.493Z,7.70
2022-10-21T03:34:35.721Z,7.10
2022-10-21T03:37:03.927Z,7.35
2022-10-21T03:39:33.482Z,6.90
2022-10-21T03:42:01.663Z,7.05
2022-10-21T03:44:29.951Z,6.20
2022-10-21T03:46:58.107Z,5.95
2022-10-21T03:49:26.403Z,6.72
2022-10-21T03:51:54.673Z,5.47
2022-10-21T03:54:23.452Z,6.97
2022-10-21T03:56:53.215Z,6.72
2022-10-21T03:59:21.492Z,6.43
2022-10-21T04:01:49.822Z,6.13
2022-10-21T04:04:18.056Z,5.55
2022-10-21T04:06:46.564Z,7.18
2022-10-21T04:09:14.846Z,8.27
2022-10-21T04:11:43.110Z,7.20
2022-10-21T04:14:15.266Z,7.95
2022-10-21T04:16:44.060Z,7.72
2022-10-21T04:19:18.128Z,8.57
2022-10-21T04:21:46.700Z,9.73
2022-10-21T04:24:15.025Z,9.80
2022-10-21T04:26:43.445Z,9.10
2022-10-21T04:29:13.034Z,8.85
2022-10-21T04:31:41.443Z,7.60
2022-10-21T04:34:09.689Z,8.75
2022-10-21T04:36:37.912Z,7.97
2022-10-21T04:39:06.466Z,9.30
2022-10-21T04:41:34.731Z,9.68
2022-10-21T04:44:03.309Z,8.38
2022-10-21T04:46:32.943Z,9.20
2022-10-21T04:49:01.194Z,8.38
2022-10-21T04:51:29.786Z,8.82
2022-10-21T04:53:58.010Z,7.55
2022-10-21T04:56:26.405Z,6.93
2022-10-21T04:58:54.662Z,7.30
2022-10-21T05:01:23.078Z,6.88
2022-10-21T05:03:52.739Z,7.47
2022-10-21T05:06:21.001Z,7.07
2022-10-21T05:08:49.324Z,7.63
2022-10-21T05:11:17.593Z,10.40
2022-10-21T05:13:47.296Z,18.23
2022-10-21T05:16:15.607Z,23.40
2022-10-21T05:18:43.796Z,32.47
2022-10-21T05:21:13.451Z,36.97
2022-10-21T05:23:44.160Z,43.83
2022-10-21T05:26:12.361Z,42.33
2022-10-21T05:28:40.598Z,43.63
2022-10-21T05:31:08.829Z,43.70
2022-10-21T05:33:37.023Z,42.60
2022-10-21T05:36:08.680Z,43.50
2022-10-21T05:38:38.217Z,45.28
2022-10-21T05:41:06.828Z,49.90
2022-10-21T05:43:35.065Z,51.17
2022-10-21T05:46:03.369Z,50.55
2022-10-21T05:48:31.578Z,48.53
2022-10-21T05:50:59.783Z,47.80
2022-10-21T05:53:28.098Z,42.92
2022-10-21T05:55:58.755Z,40.97
2022-10-21T05:58:27.375Z,37.85
2022-10-21T06:00:56.627Z,35.95
2022-10-21T06:03:25.984Z,34.25
2022-10-21T06:05:54.404Z,32.63
2022-10-21T06:08:22.621Z,32.13
2022-10-21T06:10:50.793Z,32.08
2022-10-21T06:13:20.353Z,29.90
2022-10-21T06:15:50.320Z,28.13
2022-10-21T06:18:19.360Z,25.95
2022-10-21T06:20:47.572Z,23.88
2022-10-21T06:23:16.453Z,22.67
2022-10-21T06:25:45.169Z,23.35
2022-10-21T06:28:13.309Z,22.48
2022-10-21T06:30:42.855Z,20.77
2022-10-21T06:33:11.003Z,20.90
2022-10-21T06:35:39.209Z,19.02
2022-10-21T06:38:07.459Z,16.25
2022-10-21T06:40:35.924Z,12.82
2022-10-21T06:43:04.335Z,10.57
2022-10-21T06:45:32.693Z,8.25
2022-10-21T06:48:02.448Z,5.82
2022-10-21T06:50:31.192Z,6.30
2022-10-21T06:52:59.603Z,6.45
2022-10-21T06:55:28.549Z,5.07
2022-10-21T06:57:57.177Z,5.97
2022-10-21T07:00:25.654Z,5.05
2022-10-21T07:02:53.963Z,4.80
2022-10-21T07:05:23.888Z,5.65
2022-10-21T07:07:52.545Z,4.55
2022-10-21T07:10:20.892Z,5.05
2022-10-21T07:12:49.264Z,5.60
2022-10-21T07:15:17.696Z,4.65
2022-10-21T07:17:45.967Z,4.95
2022-10-21T07:20:14.137Z,5.38
2022-10-21T07:22:46.122Z,5.57
2022-10-21T07:25:14.538Z,5.05
2022-10-21T07:27:45.982Z,4.80
2022-10-21T07:30:18.947Z,6.00
2022-10-21T07:32:47.164Z,4.85
2022-10-21T07:35:15.603Z,5.85
2022-10-21T07:37:47.676Z,5.60
2022-10-21T07:40:16.144Z,4.78
2022-10-21T07:42:44.367Z,5.13
2022-10-21T07:45:12.766Z,4.63
2022-10-21T07:47:41.402Z,3.95
2022-10-21T07:50:10.310Z,3.97
2022-10-21T07:52:51.816Z,2.90
2022-10-21T07:55:30.704Z,2.42
2022-10-21T07:57:59.656Z,2.35
2022-10-21T08:00:30.262Z,1.92
2022-10-21T08:02:58.624Z,2.47
2022-10-21T08:05:27.150Z,1.85
2022-10-21T08:07:55.738Z,2.17
2022-10-21T08:10:24.066Z,1.63
2022-10-21T08:12:53.659Z,1.75
2022-10-21T08:15:21.887Z,1.70
2022-10-21T08:17:50.086Z,1.05
2022-10-21T08:20:18.600Z,2.28
2022-10-21T08:22:49.091Z,1.85
2022-10-21T08:25:17.557Z,1.40
2022-10-21T08:27:47.919Z,0.88
2022-10-21T08:30:17.716Z,1.45
2022-10-21T08:32:48.659Z,1.15
2022-10-21T08:35:16.932Z,1.48
2022-10-21T08:37:48.946Z,1.00
2022-10-21T08:40:18.138Z,0.90
2022-10-21T08:42:47.413Z,0.98
2022-10-21T08:45:26.995Z,1.00
2022-10-21T08:48:00.710Z,0.73
2022-10-21T08:50:33.711Z,1.00
2022-10-21T08:53:12.001Z,0.70
2022-10-21T08:55:42.816Z,1.00
2022-10-21T08:58:16.314Z,0.70
2022-10-21T09:00:49.618Z,0.77
2022-10-21T09:03:24.776Z,1.65
2022-10-21T09:06:16.748Z,0.70
2022-10-21T09:08:57.342Z,1.02
2022-10-21T09:11:34.334Z,1.27
2022-10-21T09:14:47.368Z,0.80
2022-10-21T09:17:28.345Z,0.50
2022-10-21T09:20:03.723Z,0.40
2022-10-21T09:22:46.076Z,0.70
2022-10-21T09:25:22.916Z,0.43
2022-10-21T09:27:56.327Z,0.82
2022-10-21T09:30:25.946Z,0.73
2022-10-21T09:32:59.578Z,0.63
2022-10-21T09:35:34.415Z,0.38
2022-10-21T09:38:07.794Z,0.60
2022-10-21T09:40:36.206Z,0.50
2022-10-21T09:43:05.011Z,0.45
2022-10-21T09:45:36.286Z,0.40
2022-10-21T09:48:12.825Z,0.50
2022-10-21T09:50:41.515Z,0.50
2022-10-21T09:53:16.321Z,0.40
2022-10-21T09:55:47.006Z,0.40
2022-10-21T09:58:26.929Z,0.50
2022-10-21T10:00:56.060Z,0.40
2022-10-21T10:03:33.474Z,0.40
2022-10-21T10:06:03.122Z,0.30
2022-10-21T10:08:36.783Z,0.30
2022-10-21T10:11:18.122Z,0.50
2022-10-21T10:13:51.289Z,0.40
2022-10-21T10:16:23.821Z,0.50
2022-10-21T10:19:01.043Z,0.20
2022-10-21T10:21:32.348Z,0.30
2022-10-21T10:24:03.586Z,0.30
2022-10-21T10:26:34.180Z,0.30
2022-10-21T10:29:09.667Z,0.68
2022-10-21T10:31:39.030Z,0.25
2022-10-21T10:34:21.135Z,0.20
2022-10-21T10:36:50.623Z,0.30
2022-10-21T10:39:28.129Z,0.30
2022-10-21T10:41:59.563Z,0.32
2022-10-21T10:44:33.602Z,0.40
2022-10-21T10:47:04.325Z,0.25
2022-10-21T10:49:40.704Z,0.22
2022-10-21T10:52:21.535Z,0.32
2022-10-21T10:55:16.173Z,0.45
2022-10-21T10:58:05.923Z,0.50
2022-10-21T11:00:41.873Z,0.30
2022-10-21T11:03:15.735Z,0.40
2022-10-21T11:05:47.693Z,0.25
2022-10-21T11:08:19.275Z,0.30
2022-10-21T11:10:51.527Z,0.30
2022-10-21T11:13:21.813Z,0.30
2022-10-21T11:16:02.987Z,0.25
2022-10-21T11:18:37.086Z,0.40
2022-10-21T11:21:20.783Z,0.32
2022-10-21T11:24:05.590Z,0.55
2022-10-21T11:26:46.565Z,0.40
2022-10-21T11:29:29.287Z,0.20
2022-10-21T11:32:11.747Z,0.35
2022-10-21T11:35:12.433Z,0.40
2022-10-21T11:37:53.013Z,0.20
2022-10-21T11:40:32.111Z,0.57
2022-10-21T11:43:13.487Z,0.20
2022-10-21T11:45:53.209Z,0.20
2022-10-21T11:48:37.332Z,0.30
2022-10-21T11:51:19.128Z,0.40
2022-10-21T11:54:14.157Z,0.28
2022-10-21T11:56:52.232Z,0.30
2022-10-21T11:59:50.169Z,0.30
2022-10-21T12:02:26.428Z,0.32
2022-10-21T12:05:08.447Z,0.30
2022-10-21T12:07:52.223Z,0.70
2022-10-21T12:10:31.075Z,0.30
2022-10-21T12:13:05.363Z,0.38
2022-10-21T12:15:41.351Z,0.30
2022-10-21T12:18:16.573Z,0.50
2022-10-21T12:20:48.002Z,0.30
2022-10-21T12:23:19.432Z,0.30
2022-10-21T12:25:57.974Z,0.20
2022-10-21T12:28:33.590Z,0.20
2022-10-21T12:31:14.992Z,0.38
2022-10-21T12:33:45.060Z,0.30
2022-10-21T12:36:17.932Z,0.20
2022-10-21T12:38:49.471Z,0.30
2022-10-21T12:41:29.847Z,0.32
2022-10-21T12:44:05.934Z,0.40
2022-10-21T12:46:40.118Z,0.40
2022-10-21T12:49:21.513Z,0.38
2022-10-21T12:51:52.471Z,0.20
2022-10-21T12:54:26.615Z,0.25
2022-10-21T12:57:03.797Z,0.68
2022-10-21T12:59:35.210Z,0.30
2022-10-21T13:02:28.320Z,0.20
2022-10-21T13:04:59.168Z,0.40
2022-10-21T13:07:37.329Z,0.50
2022-10-21T13:10:27.747Z,0.40
2022-10-21T13:13:41.998Z,0.20
2022-10-21T13:16:30.176Z,0.20
2022-10-21T13:19:03.684Z,0.25
2022-10-21T13:21:36.564Z,0.30
2022-10-21T13:24:16.238Z,0.20
2022-10-21T13:26:50.948Z,0.30
2022-10-21T13:29:44.708Z,0.30
2022-10-21T13:32:25.717Z,0.60
2022-10-21T13:35:36.851Z,0.25
2022-10-21T13:38:20.521Z,0.30
2022-10-21T13:40:51.830Z,0.30
2022-10-21T13:43:28.579Z,0.30
2022-10-21T13:46:04.719Z,0.17
2022-10-21T13:48:38.258Z,0.35
2022-10-21T13:51:21.484Z,0.38
2022-10-21T13:53:53.889Z,0.30
2022-10-21T13:56:24.818Z,0.20
2022-10-21T13:58:53.750Z,0.20
2022-10-21T14:01:25.477Z,0.30
2022-10-21T14:03:54.899Z,0.20
2022-10-21T14:06:32.289Z,0.20
2022-10-21T14:09:01.493Z,0.17
2022-10-21T14:11:34.926Z,0.20
2022-10-21T14:14:09.651Z,0.20
2022-10-21T14:16:42.064Z,0.20
2022-10-21T14:19:16.048Z,0.30
2022-10-21T14:21:48.780Z,0.30
2022-10-21T14:24:27.934Z,0.17
2022-10-21T14:26:57.077Z,0.20
2022-10-21T14:29:28.041Z,0.20
2022-10-21T14:31:56.617Z,0.10
2022-10-21T14:34:25.701Z,0.35
2022-10-21T14:37:09.519Z,0.20
2022-10-21T14:39:42.305Z,0.13
2022-10-21T14:42:17.030Z,0.50
2022-10-21T14:44:46.370Z,0.17
2022-10-21T14:47:20.268Z,0.20
2022-10-21T14:49:50.286Z,0.20
2022-10-21T14:52:23.102Z,0.10
2022-10-21T14:54:56.858Z,0.10
2022-10-21T14:57:37.874Z,0.10
2022-10-21T15:00:10.187Z,0.20
2022-10-21T15:02:39.620Z,0.20
2022-10-21T15:05:28.936Z,0.20
2022-10-21T15:08:17.155Z,0.20
2022-10-21T15:10:45.547Z,0.30
2022-10-21T15:13:17.845Z,0.10
2022-10-21T15:15:53.238Z,0.10
2022-10-21T15:18:24.894Z,0.00
2022-10-21T15:20:55.552Z,0.10
2022-10-21T15:23:28.682Z,0.13
2022-10-21T15:26:00.839Z,0.20
2022-10-21T15:28:32.120Z,0.10
2022-10-21T15:31:02.442Z,0.10
2022-10-21T15:33:31.528Z,0.20
2022-10-21T15:36:08.669Z,0.30
2022-10-21T15:38:44.659Z,0.20
2022-10-21T15:41:15.692Z,0.25
2022-10-21T15:43:55.370Z,0.20
2022-10-21T15:46:24.740Z,0.20
2022-10-21T15:48:53.055Z,0.30
2022-10-21T15:51:21.689Z,0.10
2022-10-21T15:53:54.149Z,0.25
2022-10-21T15:56:22.449Z,0.15
2022-10-21T15:58:50.721Z,0.20
2022-10-21T16:01:19.716Z,0.20
2022-10-21T16:03:47.977Z,0.10
2022-10-21T16:06:18.810Z,0.20
2022-10-21T16:08:47.523Z,0.30
2022-10-21T16:11:25.813Z,0.40
2022-10-21T16:14:03.406Z,0.20
2022-10-21T16:16:31.782Z,0.20
2022-10-21T16:19:00.104Z,0.20
2022-10-21T16:21:28.499Z,0.22
2022-10-21T16:23:58.545Z,0.22
2022-10-21T16:26:29.552Z,0.30
2022-10-21T16:28:59.034Z,0.30
2022-10-21T16:31:30.735Z,0.57
2022-10-21T16:33:58.971Z,0.22
2022-10-21T16:36:31.181Z,0.30
2022-10-21T16:38:59.647Z,0.20
2022-10-21T16:41:29.561Z,0.55
2022-10-21T16:43:57.847Z,0.20
2022-10-21T16:46:30.137Z,0.40
2022-10-21T16:49:00.030Z,0.30
2022-10-21T16:51:30.638Z,0.50
2022-10-21T16:53:59.360Z,0.40
2022-10-21T16:56:29.000Z,0.45
2022-10-21T16:58:57.294Z,0.40
2022-10-21T17:01:26.345Z,0.30
2022-10-21T17:03:54.706Z,0.30
2022-10-21T17:06:25.785Z,0.50
2022-10-21T17:08:57.285Z,0.68
2022-10-21T17:11:28.990Z,0.30
2022-10-21T17:13:58.731Z,0.50
2022-10-21T17:16:27.102Z,0.63
2022-10-21T17:18:55.690Z,0.38
2022-10-21T17:21:26.323Z,0.30
2022-10-21T17:23:55.620Z,0.40
2022-10-21T17:26:24.038Z,0.40
2022-10-21T17:28:52.368Z,0.38
2022-10-21T17:31:26.410Z,0.30
2022-10-21T17:33:56.612Z,0.60
2022-10-21T17:36:24.958Z,0.73
2022-10-21T17:38:53.313Z,0.30
2022-10-21T17:41:21.601Z,0.35
2022-10-21T17:43:52.435Z,0.50
2022-10-21T17:46:22.421Z,0.57
2022-10-21T17:48:52.866Z,0.40
2022-10-21T17:51:22.042Z,0.50
2022-10-21T17:53:50.976Z,0.50
2022-10-21T17:56:19.836Z,0.50
2022-10-21T17:58:51.958Z,0.65
2022-10-21T18:01:20.574Z,0.50
2022-10-21T18:03:49.162Z,0.88
2022-10-21T18:06:19.363Z,0.57
2022-10-21T18:08:47.741Z,0.80
2022-10-21T18:11:19.573Z,0.82
2022-10-21T18:13:53.433Z,0.55
2022-10-21T18:16:24.397Z,0.73
2022-10-21T18:18:56.119Z,0.90
2022-10-21T18:21:28.414Z,0.60
2022-10-21T18:23:56.876Z,0.45
2022-10-21T18:26:27.005Z,0.80
2022-10-21T18:28:57.400Z,0.50
2022-10-21T18:31:28.181Z,0.73
2022-10-21T18:33:58.379Z,0.60
2022-10-21T18:36:28.574Z,0.60
2022-10-21T18:38:58.412Z,0.50
2022-10-21T18:41:26.841Z,1.02
2022-10-21T18:43:56.704Z,0.80
2022-10-21T18:46:25.385Z,0.90
2022-10-21T18:48:53.688Z,0.75
2022-10-21T18:51:23.994Z,1.00
2022-10-21T18:53:53.743Z,1.30
2022-10-21T18:56:24.158Z,2.05
2022-10-21T18:58:56.385Z,1.70
2022-10-21T19:01:26.488Z,1.80
2022-10-21T19:03:56.184Z,1.27
2022-10-21T19:06:37.099Z,2.05
2022-10-21T19:09:10.222Z,1.55
2022-10-21T19:11:38.620Z,1.27
2022-10-21T19:14:09.761Z,1.20
2022-10-21T19:16:41.383Z,0.80
2022-10-21T19:19:09.983Z,0.80
2022-10-21T19:21:38.256Z,1.10
2022-10-21T19:24:08.496Z,1.20
2022-10-21T19:26:40.373Z,1.02
2022-10-21T19:29:13.422Z,1.42
2022-10-21T19:31:42.433Z,1.50
2022-10-21T19:34:12.564Z,1.00
2022-10-21T19:36:40.943Z,1.55
2022-10-21T19:39:13.518Z,1.88
2022-10-21T19:41:42.693Z,1.73
2022-10-21T19:44:10.978Z,1.80
2022-10-21T19:46:39.424Z,1.63
2022-10-21T19:49:10.046Z,1.85
2022-10-21T19:51:41.322Z,1.10
2022-10-21T19:54:10.349Z,1.08
2022-10-21T19:56:40.022Z,1.88
2022-10-21T19:59:09.864Z,1.42
2022-10-21T20:01:38.456Z,1.40
2022-10-21T20:04:07.013Z,1.23
2022-10-21T20:06:36.818Z,1.20
2022-10-21T20:09:08.217Z,1.00
2022-10-21T20:11:37.113Z,2.40
2022-10-21T20:14:07.073Z,1.50
2022-10-21T20:16:38.702Z,1.13
2022-10-21T20:19:08.120Z,1.63
2022-10-21T20:21:38.328Z,1.48
2022-10-21T20:24:07.216Z,2.10
2022-10-21T20:26:35.804Z,1.30
2022-10-21T20:29:04.242Z,1.70
2022-10-21T20:31:33.825Z,1.55
2022-10-21T20:34:02.138Z,1.77
2022-10-21T20:36:32.556Z,1.63
2022-10-21T20:39:03.077Z,1.75
2022-10-21T20:41:35.941Z,1.50
2022-10-21T20:44:05.765Z,2.83
2022-10-21T20:46:36.443Z,2.47
2022-10-21T20:49:05.830Z,2.17
2022-10-21T20:51:38.730Z,1.58
2022-10-21T20:54:08.806Z,1.80
2022-10-21T20:56:38.649Z,1.27
2022-10-21T20:59:07.838Z,1.10
2022-10-21T21:01:41.741Z,1.10
2022-10-21T21:04:12.658Z,1.80
2022-10-21T21:06:44.388Z,1.50
2022-10-21T21:12:03.570Z,1.80
2022-10-21T21:14:32.675Z,2.03
2022-10-21T21:17:02.439Z,1.45
2022-10-21T21:19:30.888Z,1.50
2022-10-21T21:21:59.250Z,1.38
2022-10-21T21:24:27.571Z,2.03
2022-10-21T21:26:55.884Z,1.80
2022-10-21T21:29:24.373Z,1.90
2022-10-21T21:31:52.645Z,1.70
2022-10-21T21:34:22.399Z,1.35
2022-10-21T21:36:50.640Z,4.45
2022-10-21T21:39:19.011Z,1.77
2022-10-21T21:41:47.311Z,2.00
2022-10-21T21:44:15.659Z,2.28
2022-10-21T21:46:43.919Z,1.80
2022-10-21T21:49:12.173Z,2.38
2022-10-21T21:51:41.757Z,2.08
2022-10-21T21:54:10.031Z,1.77
2022-10-21T21:56:38.373Z,1.73
2022-10-21T21:59:06.648Z,1.90
2022-10-21T22:01:35.191Z,1.20
2022-10-21T22:04:03.933Z,1.30
2022-10-21T22:06:34.973Z,1.05
2022-10-21T22:09:09.913Z,1.25
2022-10-21T22:11:38.944Z,1.33
2022-10-21T22:14:07.227Z,0.70
2022-10-21T22:16:35.770Z,0.98
2022-10-21T22:19:04.027Z,0.93
2022-10-21T22:21:33.106Z,1.17
2022-10-21T22:24:01.415Z,0.80
2022-10-21T22:26:31.134Z,1.30
2022-10-21T22:28:59.492Z,1.27
2022-10-21T22:31:30.531Z,1.52
2022-10-21T22:34:00.604Z,1.17
2022-10-21T22:36:29.190Z,1.50
2022-10-21T22:39:00.517Z,1.17
2022-10-21T22:41:30.225Z,0.73
2022-10-21T22:43:58.559Z,1.77
2022-10-21T22:46:34.182Z,1.00
2022-10-21T22:49:03.471Z,1.20
2022-10-21T22:51:32.151Z,1.95
2022-10-21T22:54:01.304Z,1.42
2022-10-21T22:56:32.074Z,1.45
2022-10-21T22:59:00.380Z,1.35
2022-10-21T23:01:30.735Z,1.70
2022-10-21T23:04:02.662Z,1.60
2022-10-21T23:06:31.553Z,1.52
2022-10-21T23:08:59.919Z,1.73
2022-10-21T23:11:28.253Z,1.17
2022-10-21T23:14:03.465Z,1.70
2022-10-21T23:16:36.079Z,1.80
2022-10-21T23:19:04.650Z,1.48
2022-10-21T23:21:32.975Z,0.80
2022-10-21T23:24:01.246Z,1.85
2022-10-21T23:26:29.534Z,1.50
2022-10-21T23:29:01.638Z,2.00
2022-10-21T23:31:30.098Z,1.20
2022-10-21T23:33:58.403Z,1.52
2022-10-21T23:36:26.807Z,1.55
2022-10-21T23:38:57.774Z,1.25
2022-10-21T23:41:26.067Z,0.95
2022-10-21T23:43:54.434Z,1.10
2022-10-21T23:46:24.292Z,1.25
2022-10-21T23:48:52.588Z,1.20
2022-10-21T23:51:20.908Z,0.98
2022-10-21T23:53:49.142Z,0.80
2022-10-21T23:56:17.823Z,1.25
2022-10-21T23:58:48.242Z,0.88
